sensor_id;sensor_type;location;lat;lon;timestamp;temperature;humidity
9389;DHT22;4734;52.778;6.798;2022-12-13T00:02:34;-1.40;99.90
9389;DHT22;4734;52.778;6.798;2022-12-13T00:05:19;-1.50;99.90
9389;DHT22;4734;52.778;6.798;2022-12-13T00:08:04;-1.50;99.90
9389;DHT22;4734;52.778;6.798;2022-12-13T00:10:58;-1.50;99.90
9389;DHT22;4734;52.778;6.798;2022-12-13T00:13:44;-1.50;99.90
9389;DHT22;4734;52.778;6.798;2022-12-13T00:16:30;-1.40;99.90
9389;DHT22;4734;52.778;6.798;2022-12-13T00:19:17;-1.40;99.90
9389;DHT22;4734;52.778;6.798;2022-12-13T00:22:03;-1.50;99.90
9389;DHT22;4734;52.778;6.798;2022-12-13T00:24:48;-1.60;99.90
9389;DHT22;4734;52.778;6.798;2022-12-13T00:27:34;-1.60;99.90
9389;DHT22;4734;52.778;6.798;2022-12-13T00:30:20;-1.60;99.90
9389;DHT22;4734;52.778;6.798;2022-12-13T00:33:05;-1.60;99.90
9389;DHT22;4734;52.778;6.798;2022-12-13T00:35:53;-1.60;99.90
9389;DHT22;4734;52.778;6.798;2022-12-13T00:38:38;-1.70;99.90
9389;DHT22;4734;52.778;6.798;2022-12-13T00:41:23;-1.70;99.90
9389;DHT22;4734;52.778;6.798;2022-12-13T00:44:10;-1.70;99.90
9389;DHT22;4734;52.778;6.798;2022-12-13T00:46:56;-1.70;99.90
9389;DHT22;4734;52.778;6.798;2022-12-13T00:49:41;-1.70;99.90
9389;DHT22;4734;52.778;6.798;2022-12-13T00:52:28;-1.70;99.90
9389;DHT22;4734;52.778;6.798;2022-12-13T00:55:14;-1.80;99.90
9389;DHT22;4734;52.778;6.798;2022-12-13T00:57:59;-1.80;99.90
9389;DHT22;4734;52.778;6.798;2022-12-13T01:00:45;-1.70;99.90
9389;DHT22;4734;52.778;6.798;2022-12-13T01:03:31;-1.70;99.90
9389;DHT22;4734;52.778;6.798;2022-12-13T01:06:19;-1.80;99.90
9389;DHT22;4734;52.778;6.798;2022-12-13T01:09:07;-1.80;99.90
9389;DHT22;4734;52.778;6.798;2022-12-13T01:11:56;-1.80;99.90
9389;DHT22;4734;52.778;6.798;2022-12-13T01:14:42;-1.90;99.90
9389;DHT22;4734;52.778;6.798;2022-12-13T01:17:28;-1.90;99.90
9389;DHT22;4734;52.778;6.798;2022-12-13T01:20:13;-1.90;99.90
9389;DHT22;4734;52.778;6.798;2022-12-13T01:22:59;-1.90;99.90
9389;DHT22;4734;52.778;6.798;2022-12-13T01:25:46;-2.00;99.90
9389;DHT22;4734;52.778;6.798;2022-12-13T01:28:32;-2.00;99.90
9389;DHT22;4734;52.778;6.798;2022-12-13T01:31:19;-2.00;99.90
9389;DHT22;4734;52.778;6.798;2022-12-13T01:34:04;-1.90;99.90
9389;DHT22;4734;52.778;6.798;2022-12-13T01:36:55;-2.00;99.90
9389;DHT22;4734;52.778;6.798;2022-12-13T01:39:40;-2.00;99.90
9389;DHT22;4734;52.778;6.798;2022-12-13T01:42:27;-2.00;99.90
9389;DHT22;4734;52.778;6.798;2022-12-13T01:45:22;-2.10;99.90
9389;DHT22;4734;52.778;6.798;2022-12-13T01:48:11;-2.00;99.90
9389;DHT22;4734;52.778;6.798;2022-12-13T01:51:00;-2.10;99.90
9389;DHT22;4734;52.778;6.798;2022-12-13T01:53:47;-2.10;99.90
9389;DHT22;4734;52.778;6.798;2022-12-13T01:56:37;-2.00;99.90
9389;DHT22;4734;52.778;6.798;2022-12-13T01:59:26;-2.10;99.90
9389;DHT22;4734;52.778;6.798;2022-12-13T02:02:13;-2.10;99.90
9389;DHT22;4734;52.778;6.798;2022-12-13T02:05:03;-2.10;99.90
9389;DHT22;4734;52.778;6.798;2022-12-13T02:07:50;-2.10;99.90
9389;DHT22;4734;52.778;6.798;2022-12-13T02:10:36;-2.10;99.90
9389;DHT22;4734;52.778;6.798;2022-12-13T02:13:21;-2.10;99.90
9389;DHT22;4734;52.778;6.798;2022-12-13T02:16:13;-2.10;99.90
9389;DHT22;4734;52.778;6.798;2022-12-13T02:22:27;-2.10;99.90
9389;DHT22;4734;52.778;6.798;2022-12-13T02:25:35;-2.20;99.90
9389;DHT22;4734;52.778;6.798;2022-12-13T02:28:36;-2.10;99.90
9389;DHT22;4734;52.778;6.798;2022-12-13T02:31:29;-2.10;99.90
9389;DHT22;4734;52.778;6.798;2022-12-13T02:34:20;-2.10;99.90
9389;DHT22;4734;52.778;6.798;2022-12-13T02:37:16;-2.20;99.90
9389;DHT22;4734;52.778;6.798;2022-12-13T02:40:08;-2.20;99.90
9389;DHT22;4734;52.778;6.798;2022-12-13T02:42:59;-2.20;99.90
9389;DHT22;4734;52.778;6.798;2022-12-13T02:45:46;-2.20;99.90
9389;DHT22;4734;52.778;6.798;2022-12-13T02:48:36;-2.30;99.90
9389;DHT22;4734;52.778;6.798;2022-12-13T02:51:23;-2.30;99.90
9389;DHT22;4734;52.778;6.798;2022-12-13T02:54:08;-2.30;99.90
9389;DHT22;4734;52.778;6.798;2022-12-13T02:56:55;-2.30;99.90
9389;DHT22;4734;52.778;6.798;2022-12-13T02:59:40;-2.30;99.90
9389;DHT22;4734;52.778;6.798;2022-12-13T03:02:31;-2.30;99.90
9389;DHT22;4734;52.778;6.798;2022-12-13T03:05:27;-2.20;99.90
9389;DHT22;4734;52.778;6.798;2022-12-13T03:08:44;-2.20;99.90
9389;DHT22;4734;52.778;6.798;2022-12-13T03:11:36;-2.30;99.90
9389;DHT22;4734;52.778;6.798;2022-12-13T03:14:48;-2.40;99.90
9389;DHT22;4734;52.778;6.798;2022-12-13T03:17:43;-2.30;99.90
9389;DHT22;4734;52.778;6.798;2022-12-13T03:20:31;-2.30;99.90
9389;DHT22;4734;52.778;6.798;2022-12-13T03:23:18;-2.40;99.90
9389;DHT22;4734;52.778;6.798;2022-12-13T03:26:07;-2.40;99.90
9389;DHT22;4734;52.778;6.798;2022-12-13T03:28:53;-2.40;99.90
9389;DHT22;4734;52.778;6.798;2022-12-13T03:31:38;-2.40;99.90
9389;DHT22;4734;52.778;6.798;2022-12-13T03:34:24;-2.40;99.90
9389;DHT22;4734;52.778;6.798;2022-12-13T03:37:11;-2.50;99.90
9389;DHT22;4734;52.778;6.798;2022-12-13T03:39:57;-2.50;99.90
9389;DHT22;4734;52.778;6.798;2022-12-13T03:42:42;-2.50;99.90
9389;DHT22;4734;52.778;6.798;2022-12-13T03:45:28;-2.50;99.90
9389;DHT22;4734;52.778;6.798;2022-12-13T03:48:13;-2.50;99.90
9389;DHT22;4734;52.778;6.798;2022-12-13T03:50:59;-2.50;99.90
9389;DHT22;4734;52.778;6.798;2022-12-13T03:53:47;-2.50;99.90
9389;DHT22;4734;52.778;6.798;2022-12-13T03:56:32;-2.60;99.90
9389;DHT22;4734;52.778;6.798;2022-12-13T03:59:18;-2.60;99.90
9389;DHT22;4734;52.778;6.798;2022-12-13T04:02:03;-2.60;99.90
9389;DHT22;4734;52.778;6.798;2022-12-13T04:04:49;-2.60;99.90
9389;DHT22;4734;52.778;6.798;2022-12-13T04:07:34;-2.60;99.90
9389;DHT22;4734;52.778;6.798;2022-12-13T04:10:21;-2.50;99.90
9389;DHT22;4734;52.778;6.798;2022-12-13T04:13:06;-2.60;99.90
9389;DHT22;4734;52.778;6.798;2022-12-13T04:16:09;-2.60;99.90
9389;DHT22;4734;52.778;6.798;2022-12-13T04:18:55;-2.60;99.90
9389;DHT22;4734;52.778;6.798;2022-12-13T04:21:40;-2.70;99.90
9389;DHT22;4734;52.778;6.798;2022-12-13T04:24:26;-2.70;99.90
9389;DHT22;4734;52.778;6.798;2022-12-13T04:27:13;-2.70;99.90
9389;DHT22;4734;52.778;6.798;2022-12-13T04:29:58;-2.70;99.90
9389;DHT22;4734;52.778;6.798;2022-12-13T04:32:43;-2.70;99.90
9389;DHT22;4734;52.778;6.798;2022-12-13T04:35:29;-2.70;99.90
9389;DHT22;4734;52.778;6.798;2022-12-13T04:38:15;-2.70;99.90
9389;DHT22;4734;52.778;6.798;2022-12-13T04:41:06;-2.80;99.90
9389;DHT22;4734;52.778;6.798;2022-12-13T04:43:53;-2.80;99.90
9389;DHT22;4734;52.778;6.798;2022-12-13T04:46:39;-2.80;99.90
9389;DHT22;4734;52.778;6.798;2022-12-13T04:49:24;-2.70;99.90
9389;DHT22;4734;52.778;6.798;2022-12-13T04:52:10;-2.70;99.90
9389;DHT22;4734;52.778;6.798;2022-12-13T04:54:56;-2.80;99.90
9389;DHT22;4734;52.778;6.798;2022-12-13T04:57:41;-2.80;99.90
9389;DHT22;4734;52.778;6.798;2022-12-13T05:00:28;-2.80;99.90
9389;DHT22;4734;52.778;6.798;2022-12-13T05:03:13;-2.80;99.90
9389;DHT22;4734;52.778;6.798;2022-12-13T05:06:03;-2.70;99.90
9389;DHT22;4734;52.778;6.798;2022-12-13T05:08:48;-2.70;99.90
9389;DHT22;4734;52.778;6.798;2022-12-13T05:11:34;-2.70;99.90
9389;DHT22;4734;52.778;6.798;2022-12-13T05:14:19;-2.70;99.90
9389;DHT22;4734;52.778;6.798;2022-12-13T05:17:06;-2.70;99.90
9389;DHT22;4734;52.778;6.798;2022-12-13T05:19:52;-2.70;99.90
9389;DHT22;4734;52.778;6.798;2022-12-13T05:22:37;-2.70;99.90
9389;DHT22;4734;52.778;6.798;2022-12-13T05:25:23;-2.80;99.90
9389;DHT22;4734;52.778;6.798;2022-12-13T05:28:08;-2.80;99.90
9389;DHT22;4734;52.778;6.798;2022-12-13T05:30:56;-2.80;99.90
9389;DHT22;4734;52.778;6.798;2022-12-13T05:33:43;-2.70;99.90
9389;DHT22;4734;52.778;6.798;2022-12-13T05:36:28;-2.70;99.90
9389;DHT22;4734;52.778;6.798;2022-12-13T05:39:14;-2.70;99.90
9389;DHT22;4734;52.778;6.798;2022-12-13T05:41:59;-2.70;99.90
9389;DHT22;4734;52.778;6.798;2022-12-13T05:44:45;-2.60;99.90
9389;DHT22;4734;52.778;6.798;2022-12-13T05:47:31;-2.70;99.90
9389;DHT22;4734;52.778;6.798;2022-12-13T05:50:18;-2.60;99.90
9389;DHT22;4734;52.778;6.798;2022-12-13T05:53:04;-2.60;99.90
9389;DHT22;4734;52.778;6.798;2022-12-13T05:55:50;-2.60;99.90
9389;DHT22;4734;52.778;6.798;2022-12-13T05:58:36;-2.50;99.90
9389;DHT22;4734;52.778;6.798;2022-12-13T06:01:22;-2.50;99.90
9389;DHT22;4734;52.778;6.798;2022-12-13T06:04:07;-2.50;99.90
9389;DHT22;4734;52.778;6.798;2022-12-13T06:06:54;-2.50;99.90
9389;DHT22;4734;52.778;6.798;2022-12-13T06:09:40;-2.50;99.90
9389;DHT22;4734;52.778;6.798;2022-12-13T06:12:26;-2.50;99.90
9389;DHT22;4734;52.778;6.798;2022-12-13T06:15:11;-2.50;99.90
9389;DHT22;4734;52.778;6.798;2022-12-13T06:17:58;-2.50;99.90
9389;DHT22;4734;52.778;6.798;2022-12-13T06:20:44;-2.50;99.90
9389;DHT22;4734;52.778;6.798;2022-12-13T06:23:32;-2.50;99.90
9389;DHT22;4734;52.778;6.798;2022-12-13T06:26:18;-2.60;99.90
9389;DHT22;4734;52.778;6.798;2022-12-13T06:29:03;-2.60;99.90
9389;DHT22;4734;52.778;6.798;2022-12-13T06:31:51;-2.60;99.90
9389;DHT22;4734;52.778;6.798;2022-12-13T06:34:38;-2.60;99.90
9389;DHT22;4734;52.778;6.798;2022-12-13T06:37:23;-2.60;99.90
9389;DHT22;4734;52.778;6.798;2022-12-13T06:40:11;-2.60;99.90
9389;DHT22;4734;52.778;6.798;2022-12-13T06:42:57;-2.60;99.90
9389;DHT22;4734;52.778;6.798;2022-12-13T06:45:42;-2.60;99.90
9389;DHT22;4734;52.778;6.798;2022-12-13T06:48:27;-2.60;99.90
9389;DHT22;4734;52.778;6.798;2022-12-13T06:51:13;-2.60;99.90
9389;DHT22;4734;52.778;6.798;2022-12-13T06:53:58;-2.70;99.90
9389;DHT22;4734;52.778;6.798;2022-12-13T06:56:46;-2.70;99.90
9389;DHT22;4734;52.778;6.798;2022-12-13T06:59:31;-2.70;99.90
9389;DHT22;4734;52.778;6.798;2022-12-13T07:02:17;-2.70;99.90
9389;DHT22;4734;52.778;6.798;2022-12-13T07:05:02;-2.70;99.90
9389;DHT22;4734;52.778;6.798;2022-12-13T07:07:48;-2.70;99.90
9389;DHT22;4734;52.778;6.798;2022-12-13T07:10:34;-2.70;99.90
9389;DHT22;4734;52.778;6.798;2022-12-13T07:13:23;-2.70;99.90
9389;DHT22;4734;52.778;6.798;2022-12-13T07:16:09;-2.70;99.90
9389;DHT22;4734;52.778;6.798;2022-12-13T07:18:55;-2.70;99.90
9389;DHT22;4734;52.778;6.798;2022-12-13T07:21:40;-2.80;99.90
9389;DHT22;4734;52.778;6.798;2022-12-13T07:24:26;-2.80;99.90
9389;DHT22;4734;52.778;6.798;2022-12-13T07:27:12;-2.80;99.90
9389;DHT22;4734;52.778;6.798;2022-12-13T07:29:59;-2.80;99.90
9389;DHT22;4734;52.778;6.798;2022-12-13T07:32:44;-2.80;99.90
9389;DHT22;4734;52.778;6.798;2022-12-13T07:35:31;-2.80;99.90
9389;DHT22;4734;52.778;6.798;2022-12-13T07:38:16;-2.80;99.90
9389;DHT22;4734;52.778;6.798;2022-12-13T07:41:03;-2.80;99.90
9389;DHT22;4734;52.778;6.798;2022-12-13T07:43:49;-2.80;99.90
9389;DHT22;4734;52.778;6.798;2022-12-13T07:46:36;-2.80;99.90
9389;DHT22;4734;52.778;6.798;2022-12-13T07:49:21;-2.80;99.90
9389;DHT22;4734;52.778;6.798;2022-12-13T07:52:09;-2.80;99.90
9389;DHT22;4734;52.778;6.798;2022-12-13T07:54:55;-2.80;99.90
9389;DHT22;4734;52.778;6.798;2022-12-13T07:57:41;-2.80;99.90
9389;DHT22;4734;52.778;6.798;2022-12-13T08:00:26;-2.80;99.90
9389;DHT22;4734;52.778;6.798;2022-12-13T08:03:13;-2.80;99.90
9389;DHT22;4734;52.778;6.798;2022-12-13T08:06:00;-2.80;99.90
9389;DHT22;4734;52.778;6.798;2022-12-13T08:08:46;-2.80;99.90
9389;DHT22;4734;52.778;6.798;2022-12-13T08:11:34;-2.90;99.90
9389;DHT22;4734;52.778;6.798;2022-12-13T08:14:20;-2.80;99.90
9389;DHT22;4734;52.778;6.798;2022-12-13T08:17:05;-2.90;99.90
9389;DHT22;4734;52.778;6.798;2022-12-13T08:19:52;-2.90;99.90
9389;DHT22;4734;52.778;6.798;2022-12-13T08:22:38;-2.90;99.90
9389;DHT22;4734;52.778;6.798;2022-12-13T08:25:24;-2.90;99.90
9389;DHT22;4734;52.778;6.798;2022-12-13T08:28:09;-2.90;99.90
9389;DHT22;4734;52.778;6.798;2022-12-13T08:31:01;-2.90;99.90
9389;DHT22;4734;52.778;6.798;2022-12-13T08:33:47;-2.90;99.90
9389;DHT22;4734;52.778;6.798;2022-12-13T08:36:34;-3.00;99.90
9389;DHT22;4734;52.778;6.798;2022-12-13T08:39:19;-2.90;99.90
9389;DHT22;4734;52.778;6.798;2022-12-13T08:42:07;-2.90;99.90
9389;DHT22;4734;52.778;6.798;2022-12-13T08:44:52;-3.00;99.90
9389;DHT22;4734;52.778;6.798;2022-12-13T08:47:38;-3.00;99.90
9389;DHT22;4734;52.778;6.798;2022-12-13T08:50:24;-3.00;99.90
9389;DHT22;4734;52.778;6.798;2022-12-13T08:53:11;-3.00;99.90
9389;DHT22;4734;52.778;6.798;2022-12-13T08:55:59;-3.00;99.90
9389;DHT22;4734;52.778;6.798;2022-12-13T08:58:48;-3.00;99.90
9389;DHT22;4734;52.778;6.798;2022-12-13T09:01:34;-3.00;99.90
9389;DHT22;4734;52.778;6.798;2022-12-13T09:04:20;-3.00;99.90
9389;DHT22;4734;52.778;6.798;2022-12-13T09:07:05;-3.00;99.90
9389;DHT22;4734;52.778;6.798;2022-12-13T09:09:52;-3.00;99.90
9389;DHT22;4734;52.778;6.798;2022-12-13T09:12:40;-2.90;99.90
9389;DHT22;4734;52.778;6.798;2022-12-13T09:15:27;-2.90;99.90
9389;DHT22;4734;52.778;6.798;2022-12-13T09:18:13;-2.90;99.90
9389;DHT22;4734;52.778;6.798;2022-12-13T09:20:58;-2.90;99.90
9389;DHT22;4734;52.778;6.798;2022-12-13T09:23:44;-2.90;99.90
9389;DHT22;4734;52.778;6.798;2022-12-13T09:26:31;-2.90;99.90
9389;DHT22;4734;52.778;6.798;2022-12-13T09:29:16;-2.90;99.90
9389;DHT22;4734;52.778;6.798;2022-12-13T09:32:02;-2.90;99.90
9389;DHT22;4734;52.778;6.798;2022-12-13T09:34:48;-2.90;99.90
9389;DHT22;4734;52.778;6.798;2022-12-13T09:37:33;-2.90;99.90
9389;DHT22;4734;52.778;6.798;2022-12-13T09:40:21;-2.80;99.90
9389;DHT22;4734;52.778;6.798;2022-12-13T09:43:12;-2.80;99.90
9389;DHT22;4734;52.778;6.798;2022-12-13T09:46:04;-2.80;99.90
9389;DHT22;4734;52.778;6.798;2022-12-13T09:48:52;-2.70;99.90
9389;DHT22;4734;52.778;6.798;2022-12-13T09:51:39;-2.70;99.90
9389;DHT22;4734;52.778;6.798;2022-12-13T09:54:25;-2.70;99.90
9389;DHT22;4734;52.778;6.798;2022-12-13T09:57:15;-2.60;99.90
9389;DHT22;4734;52.778;6.798;2022-12-13T10:00:05;-2.60;99.90
9389;DHT22;4734;52.778;6.798;2022-12-13T10:02:56;-2.60;99.90
9389;DHT22;4734;52.778;6.798;2022-12-13T10:05:44;-2.60;99.90
9389;DHT22;4734;52.778;6.798;2022-12-13T10:08:34;-2.50;99.90
9389;DHT22;4734;52.778;6.798;2022-12-13T10:11:20;-2.50;99.90
9389;DHT22;4734;52.778;6.798;2022-12-13T10:14:10;-2.50;99.90
9389;DHT22;4734;52.778;6.798;2022-12-13T10:17:00;-2.40;99.90
9389;DHT22;4734;52.778;6.798;2022-12-13T10:19:48;-2.30;99.90
9389;DHT22;4734;52.778;6.798;2022-12-13T10:22:34;-2.30;99.90
9389;DHT22;4734;52.778;6.798;2022-12-13T10:25:43;-2.30;99.90
9389;DHT22;4734;52.778;6.798;2022-12-13T10:28:32;-2.20;99.90
9389;DHT22;4734;52.778;6.798;2022-12-13T10:31:19;-2.20;99.90
9389;DHT22;4734;52.778;6.798;2022-12-13T10:34:15;-2.10;99.90
9389;DHT22;4734;52.778;6.798;2022-12-13T10:37:19;-2.00;99.90
9389;DHT22;4734;52.778;6.798;2022-12-13T10:40:22;-1.90;99.90
9389;DHT22;4734;52.778;6.798;2022-12-13T10:43:11;-1.80;99.90
9389;DHT22;4734;52.778;6.798;2022-12-13T10:45:58;-1.70;99.90
9389;DHT22;4734;52.778;6.798;2022-12-13T10:48:47;-1.60;99.90
9389;DHT22;4734;52.778;6.798;2022-12-13T10:51:38;-1.50;99.90
9389;DHT22;4734;52.778;6.798;2022-12-13T10:54:27;-1.40;99.90
9389;DHT22;4734;52.778;6.798;2022-12-13T10:57:13;-1.30;99.90
9389;DHT22;4734;52.778;6.798;2022-12-13T10:59:59;-1.20;99.90
9389;DHT22;4734;52.778;6.798;2022-12-13T11:02:52;-1.10;99.90
9389;DHT22;4734;52.778;6.798;2022-12-13T11:05:38;-1.00;99.90
9389;DHT22;4734;52.778;6.798;2022-12-13T11:08:27;-0.90;99.90
9389;DHT22;4734;52.778;6.798;2022-12-13T11:11:16;-0.90;99.90
9389;DHT22;4734;52.778;6.798;2022-12-13T11:14:03;-0.80;99.90
9389;DHT22;4734;52.778;6.798;2022-12-13T11:16:50;-0.70;99.90
9389;DHT22;4734;52.778;6.798;2022-12-13T11:19:38;-0.70;99.90
9389;DHT22;4734;52.778;6.798;2022-12-13T11:22:26;-0.50;99.90
9389;DHT22;4734;52.778;6.798;2022-12-13T11:25:22;-0.50;99.90
9389;DHT22;4734;52.778;6.798;2022-12-13T11:28:19;-0.40;99.90
9389;DHT22;4734;52.778;6.798;2022-12-13T11:31:17;-0.30;99.90
9389;DHT22;4734;52.778;6.798;2022-12-13T11:34:16;-0.20;99.90
9389;DHT22;4734;52.778;6.798;2022-12-13T11:37:10;-0.10;99.90
9389;DHT22;4734;52.778;6.798;2022-12-13T11:40:04;0.00;99.90
9389;DHT22;4734;52.778;6.798;2022-12-13T11:42:59;0.10;99.90
9389;DHT22;4734;52.778;6.798;2022-12-13T11:45:51;0.20;99.90
9389;DHT22;4734;52.778;6.798;2022-12-13T11:48:43;0.30;99.90
9389;DHT22;4734;52.778;6.798;2022-12-13T11:51:33;0.40;99.90
9389;DHT22;4734;52.778;6.798;2022-12-13T11:54:27;0.50;99.90
9389;DHT22;4734;52.778;6.798;2022-12-13T11:57:25;0.60;99.90
9389;DHT22;4734;52.778;6.798;2022-12-13T12:00:28;0.70;99.90
9389;DHT22;4734;52.778;6.798;2022-12-13T12:03:17;0.80;99.90
9389;DHT22;4734;52.778;6.798;2022-12-13T12:06:08;0.90;99.90
9389;DHT22;4734;52.778;6.798;2022-12-13T12:08:58;1.00;99.90
9389;DHT22;4734;52.778;6.798;2022-12-13T12:11:47;1.00;99.90
9389;DHT22;4734;52.778;6.798;2022-12-13T12:14:38;1.10;99.90
9389;DHT22;4734;52.778;6.798;2022-12-13T12:17:27;1.20;99.90
9389;DHT22;4734;52.778;6.798;2022-12-13T12:20:15;1.30;99.90
9389;DHT22;4734;52.778;6.798;2022-12-13T12:23:16;1.30;99.90
9389;DHT22;4734;52.778;6.798;2022-12-13T12:26:08;1.40;99.90
9389;DHT22;4734;52.778;6.798;2022-12-13T12:29:11;1.40;99.90
9389;DHT22;4734;52.778;6.798;2022-12-13T12:32:08;1.50;99.90
9389;DHT22;4734;52.778;6.798;2022-12-13T12:35:13;1.50;99.90
9389;DHT22;4734;52.778;6.798;2022-12-13T12:38:09;1.60;99.90
9389;DHT22;4734;52.778;6.798;2022-12-13T12:41:11;1.60;99.90
9389;DHT22;4734;52.778;6.798;2022-12-13T12:44:04;1.70;99.90
9389;DHT22;4734;52.778;6.798;2022-12-13T12:47:03;1.70;99.90
9389;DHT22;4734;52.778;6.798;2022-12-13T12:50:12;1.70;99.90
9389;DHT22;4734;52.778;6.798;2022-12-13T12:53:10;1.80;99.90
9389;DHT22;4734;52.778;6.798;2022-12-13T12:56:09;1.80;99.90
9389;DHT22;4734;52.778;6.798;2022-12-13T12:59:03;1.90;99.90
9389;DHT22;4734;52.778;6.798;2022-12-13T13:01:58;1.90;99.90
9389;DHT22;4734;52.778;6.798;2022-12-13T13:04:49;2.00;99.90
9389;DHT22;4734;52.778;6.798;2022-12-13T13:07:41;2.00;99.90
9389;DHT22;4734;52.778;6.798;2022-12-13T13:10:28;2.00;99.90
9389;DHT22;4734;52.778;6.798;2022-12-13T19:23:59;-1.20;99.90
9389;DHT22;4734;52.778;6.798;2022-12-13T19:26:44;-1.30;99.90
9389;DHT22;4734;52.778;6.798;2022-12-13T19:29:30;-1.30;99.90
9389;DHT22;4734;52.778;6.798;2022-12-13T19:32:15;-1.30;99.90
9389;DHT22;4734;52.778;6.798;2022-12-13T19:35:01;-1.30;99.90
9389;DHT22;4734;52.778;6.798;2022-12-13T19:37:46;-1.40;99.90
9389;DHT22;4734;52.778;6.798;2022-12-13T19:40:33;-1.40;99.90
9389;DHT22;4734;52.778;6.798;2022-12-13T19:43:19;-1.30;99.90
9389;DHT22;4734;52.778;6.798;2022-12-13T19:46:05;-1.40;99.90
9389;DHT22;4734;52.778;6.798;2022-12-13T19:48:50;-1.40;99.90
9389;DHT22;4734;52.778;6.798;2022-12-13T19:51:36;-1.40;99.90
9389;DHT22;4734;52.778;6.798;2022-12-13T19:54:21;-1.30;99.90
9389;DHT22;4734;52.778;6.798;2022-12-13T19:57:09;-1.40;99.90
9389;DHT22;4734;52.778;6.798;2022-12-13T19:59:54;-1.40;99.90
9389;DHT22;4734;52.778;6.798;2022-12-13T20:02:39;-1.40;99.90
9389;DHT22;4734;52.778;6.798;2022-12-13T20:05:25;-1.40;99.90
9389;DHT22;4734;52.778;6.798;2022-12-13T20:08:11;-1.40;99.90
9389;DHT22;4734;52.778;6.798;2022-12-13T20:10:58;-1.40;99.90
9389;DHT22;4734;52.778;6.798;2022-12-13T20:13:46;-1.50;99.90
9389;DHT22;4734;52.778;6.798;2022-12-13T20:16:31;-1.50;99.90
9389;DHT22;4734;52.778;6.798;2022-12-13T20:19:16;-1.50;99.90
9389;DHT22;4734;52.778;6.798;2022-12-13T20:22:02;-1.50;99.90
9389;DHT22;4734;52.778;6.798;2022-12-13T20:24:47;-1.40;99.90
9389;DHT22;4734;52.778;6.798;2022-12-13T20:27:32;-1.50;99.90
9389;DHT22;4734;52.778;6.798;2022-12-13T20:30:19;-1.50;99.90
9389;DHT22;4734;52.778;6.798;2022-12-13T20:33:05;-1.50;99.90
9389;DHT22;4734;52.778;6.798;2022-12-13T20:35:51;-1.50;99.90
9389;DHT22;4734;52.778;6.798;2022-12-13T20:38:37;-1.50;99.90
9389;DHT22;4734;52.778;6.798;2022-12-13T20:41:24;-1.50;99.90
9389;DHT22;4734;52.778;6.798;2022-12-13T20:44:10;-1.50;99.90
9389;DHT22;4734;52.778;6.798;2022-12-13T20:46:57;-1.50;99.90
9389;DHT22;4734;52.778;6.798;2022-12-13T20:49:42;-1.50;99.90
9389;DHT22;4734;52.778;6.798;2022-12-13T20:52:28;-1.50;99.90
9389;DHT22;4734;52.778;6.798;2022-12-13T20:55:13;-1.50;99.90
9389;DHT22;4734;52.778;6.798;2022-12-13T20:58:02;-1.50;99.90
9389;DHT22;4734;52.778;6.798;2022-12-13T21:00:48;-1.50;99.90
9389;DHT22;4734;52.778;6.798;2022-12-13T21:03:35;-1.50;99.90
9389;DHT22;4734;52.778;6.798;2022-12-13T21:06:21;-1.60;99.90
9389;DHT22;4734;52.778;6.798;2022-12-13T21:09:07;-1.50;99.90
9389;DHT22;4734;52.778;6.798;2022-12-13T21:11:53;-1.50;99.90
9389;DHT22;4734;52.778;6.798;2022-12-13T21:14:38;-1.50;99.90
9389;DHT22;4734;52.778;6.798;2022-12-13T21:17:24;-1.60;99.90
9389;DHT22;4734;52.778;6.798;2022-12-13T21:20:10;-1.60;99.90
9389;DHT22;4734;52.778;6.798;2022-12-13T21:22:56;-1.50;99.90
9389;DHT22;4734;52.778;6.798;2022-12-13T21:25:41;-1.50;99.90
9389;DHT22;4734;52.778;6.798;2022-12-13T21:28:27;-1.60;99.90
9389;DHT22;4734;52.778;6.798;2022-12-13T21:31:12;-1.50;99.90
9389;DHT22;4734;52.778;6.798;2022-12-13T21:33:59;-1.60;99.90
9389;DHT22;4734;52.778;6.798;2022-12-13T21:36:48;-1.60;99.90
9389;DHT22;4734;52.778;6.798;2022-12-13T21:39:34;-1.60;99.90
9389;DHT22;4734;52.778;6.798;2022-12-13T21:42:19;-1.60;99.90
9389;DHT22;4734;52.778;6.798;2022-12-13T21:45:05;-1.60;99.90
9389;DHT22;4734;52.778;6.798;2022-12-13T21:47:51;-1.60;99.90
9389;DHT22;4734;52.778;6.798;2022-12-13T21:50:36;-1.60;99.90
9389;DHT22;4734;52.778;6.798;2022-12-13T21:53:23;-1.60;99.90
9389;DHT22;4734;52.778;6.798;2022-12-13T21:56:11;-1.60;99.90
9389;DHT22;4734;52.778;6.798;2022-12-13T21:59:17;-1.60;99.90
9389;DHT22;4734;52.778;6.798;2022-12-13T22:02:05;-1.60;99.90
9389;DHT22;4734;52.778;6.798;2022-12-13T22:04:57;-1.60;99.90
9389;DHT22;4734;52.778;6.798;2022-12-13T22:07:43;-1.60;99.90
9389;DHT22;4734;52.778;6.798;2022-12-13T22:10:30;-1.60;99.90
9389;DHT22;4734;52.778;6.798;2022-12-13T22:13:15;-1.60;99.90
9389;DHT22;4734;52.778;6.798;2022-12-13T22:16:01;-1.60;99.90
9389;DHT22;4734;52.778;6.798;2022-12-13T22:18:46;-1.60;99.90
9389;DHT22;4734;52.778;6.798;2022-12-13T22:21:32;-1.60;99.90
9389;DHT22;4734;52.778;6.798;2022-12-13T22:24:18;-1.60;99.90
9389;DHT22;4734;52.778;6.798;2022-12-13T22:27:05;-1.60;99.90
9389;DHT22;4734;52.778;6.798;2022-12-13T22:29:51;-1.60;99.90
9389;DHT22;4734;52.778;6.798;2022-12-13T22:32:36;-1.60;99.90
9389;DHT22;4734;52.778;6.798;2022-12-13T22:35:22;-1.60;99.90
9389;DHT22;4734;52.778;6.798;2022-12-13T22:38:07;-1.60;99.90
9389;DHT22;4734;52.778;6.798;2022-12-13T22:40:58;-1.60;99.90
9389;DHT22;4734;52.778;6.798;2022-12-13T22:43:45;-1.60;99.90
9389;DHT22;4734;52.778;6.798;2022-12-13T22:46:30;-1.70;99.90
9389;DHT22;4734;52.778;6.798;2022-12-13T22:49:16;-1.70;99.90
9389;DHT22;4734;52.778;6.798;2022-12-13T22:52:02;-1.60;99.90
9389;DHT22;4734;52.778;6.798;2022-12-13T22:54:47;-1.60;99.90
9389;DHT22;4734;52.778;6.798;2022-12-13T22:57:33;-1.70;99.90
9389;DHT22;4734;52.778;6.798;2022-12-13T23:00:20;-1.70;99.90
9389;DHT22;4734;52.778;6.798;2022-12-13T23:03:05;-1.70;99.90
9389;DHT22;4734;52.778;6.798;2022-12-13T23:05:50;-1.70;99.90
9389;DHT22;4734;52.778;6.798;2022-12-13T23:08:36;-1.70;99.90
9389;DHT22;4734;52.778;6.798;2022-12-13T23:11:22;-1.70;99.90
9389;DHT22;4734;52.778;6.798;2022-12-13T23:14:27;-1.70;99.90
9389;DHT22;4734;52.778;6.798;2022-12-13T23:17:14;-1.80;99.90
9389;DHT22;4734;52.778;6.798;2022-12-13T23:19:59;-1.70;99.90
9389;DHT22;4734;52.778;6.798;2022-12-13T23:22:45;-1.80;99.90
9389;DHT22;4734;52.778;6.798;2022-12-13T23:25:30;-1.80;99.90
9389;DHT22;4734;52.778;6.798;2022-12-13T23:28:16;-1.80;99.90
9389;DHT22;4734;52.778;6.798;2022-12-13T23:31:02;-1.80;99.90
9389;DHT22;4734;52.778;6.798;2022-12-13T23:33:49;-1.80;99.90
9389;DHT22;4734;52.778;6.798;2022-12-13T23:36:34;-1.80;99.90
9389;DHT22;4734;52.778;6.798;2022-12-13T23:39:20;-1.80;99.90
9389;DHT22;4734;52.778;6.798;2022-12-13T23:42:06;-1.90;99.90
9389;DHT22;4734;52.778;6.798;2022-12-13T23:44:51;-1.90;99.90
9389;DHT22;4734;52.778;6.798;2022-12-13T23:47:37;-1.90;99.90
9389;DHT22;4734;52.778;6.798;2022-12-13T23:50:24;-1.90;99.90
9389;DHT22;4734;52.778;6.798;2022-12-13T23:53:09;-1.90;99.90
9389;DHT22;4734;52.778;6.798;2022-12-13T23:55:55;-2.00;99.90
9389;DHT22;4734;52.778;6.798;2022-12-13T23:58:42;-1.90;99.90
